createdAt,value
2022-12-08T00:01:59.320Z,99512.47
2022-12-08T00:04:27.905Z,99510.13
2022-12-08T00:07:15.103Z,99521.19
2022-12-08T00:09:43.706Z,99528.47
2022-12-08T00:12:15.349Z,99532.91
2022-12-08T00:14:46.536Z,99529.09
2022-12-08T00:17:16.863Z,99526.56
2022-12-08T00:19:46.011Z,99533.53
2022-12-08T00:22:16.341Z,99527.97
2022-12-08T00:24:46.621Z,99533.19
2022-12-08T00:27:18.156Z,99536.81
2022-12-08T00:29:46.792Z,99543.47
2022-12-08T00:35:01.187Z,99548.03
2022-12-08T00:37:30.911Z,99533.50
2022-12-08T00:39:59.021Z,99531.44
2022-12-08T00:42:27.163Z,99532.72
2022-12-08T00:44:55.742Z,99538.88
2022-12-08T00:47:25.065Z,99537.75
2022-12-08T00:49:53.353Z,99533.34
2022-12-08T00:52:21.932Z,99529.03
2022-12-08T00:54:51.452Z,99523.22
2022-12-08T00:57:19.630Z,99522.09
2022-12-08T00:59:47.765Z,99527.94
2022-12-08T01:02:16.207Z,99526.22
2022-12-08T01:04:44.655Z,99533.00
2022-12-08T01:07:12.859Z,99523.19
2022-12-08T01:09:41.011Z,99534.75
2022-12-08T01:12:10.818Z,99532.19
2022-12-08T01:14:39.046Z,99534.56
2022-12-08T01:17:07.219Z,99528.84
2022-12-08T01:19:35.459Z,99527.94
2022-12-08T01:22:03.528Z,99530.94
2022-12-08T01:24:32.375Z,99532.38
2022-12-08T01:27:00.555Z,99537.59
2022-12-08T01:29:30.041Z,99534.63
2022-12-08T01:31:58.224Z,99534.13
2022-12-08T01:34:26.310Z,99538.09
2022-12-08T01:36:54.444Z,99540.47
2022-12-08T01:39:22.793Z,99546.00
2022-12-08T01:41:51.001Z,99544.44
2022-12-08T01:45:07.890Z,99531.91
2022-12-08T01:47:43.469Z,99535.41
2022-12-08T01:50:14.901Z,99540.16
2022-12-08T01:52:47.863Z,99534.13
2022-12-08T01:55:21.995Z,99528.25
2022-12-08T01:57:57.042Z,99532.72
2022-12-08T02:00:25.758Z,99538.88
2022-12-08T02:02:59.593Z,99536.50
2022-12-08T02:05:31.502Z,99527.94
2022-12-08T02:08:01.736Z,99529.66
2022-12-08T02:10:36.408Z,99527.44
2022-12-08T02:13:05.877Z,99527.13
2022-12-08T02:15:43.039Z,99525.22
2022-12-08T02:18:30.919Z,99526.97
2022-12-08T02:21:05.098Z,99522.03
2022-12-08T02:23:43.272Z,99533.47
2022-12-08T02:26:41.002Z,99535.03
2022-12-08T02:29:50.426Z,99532.06
2022-12-08T02:32:58.729Z,99530.63
2022-12-08T02:35:36.753Z,99528.38
2022-12-08T02:38:13.571Z,99531.41
2022-12-08T02:40:50.896Z,99537.75
2022-12-08T02:43:27.889Z,99534.59
2022-12-08T02:46:01.188Z,99535.84
2022-12-08T02:48:30.000Z,99534.44
2022-12-08T02:50:59.490Z,99536.13
2022-12-08T02:53:31.984Z,99540.44
2022-12-08T02:56:07.224Z,99540.91
2022-12-08T02:59:04.329Z,99548.50
2022-12-08T03:01:50.003Z,99541.38
2022-12-08T03:04:27.943Z,99541.19
2022-12-08T03:07:04.444Z,99542.47
2022-12-08T03:09:39.834Z,99542.94
2022-12-08T03:12:16.754Z,99537.75
2022-12-08T03:14:49.413Z,99535.41
2022-12-08T03:17:22.213Z,99530.03
2022-12-08T03:19:51.249Z,99532.25
2022-12-08T03:22:26.069Z,99519.72
2022-12-08T03:24:55.171Z,99519.72
2022-12-08T03:27:25.912Z,99516.59
2022-12-08T03:29:56.959Z,99522.41
2022-12-08T03:32:30.283Z,99524.66
2022-12-08T03:35:02.307Z,99533.06
2022-12-08T03:37:32.436Z,99536.53
2022-12-08T03:40:00.553Z,99538.91
2022-12-08T03:42:28.645Z,99543.47
2022-12-08T03:44:57.040Z,99541.25
2022-12-08T03:47:25.274Z,99542.50
2022-12-08T03:49:53.446Z,99540.00
2022-12-08T03:52:21.527Z,99545.19
2022-12-08T03:54:50.976Z,99549.00
2022-12-08T03:57:19.206Z,99542.84
2022-12-08T03:59:47.868Z,99544.72
2022-12-08T04:02:15.997Z,99538.09
2022-12-08T04:04:45.209Z,99540.00
2022-12-08T04:07:13.357Z,99531.75
2022-12-08T04:09:41.888Z,99532.06
2022-12-08T04:12:11.465Z,99535.88
2022-12-08T04:14:39.616Z,99534.97
2022-12-08T04:17:07.735Z,99540.66
2022-12-08T04:19:35.905Z,99547.44
2022-12-08T04:22:04.027Z,99544.59
2022-12-08T04:24:32.153Z,99548.38
2022-12-08T04:27:00.334Z,99548.09
2022-12-08T04:29:29.852Z,99545.25
2022-12-08T04:31:58.096Z,99542.38
2022-12-08T04:34:26.234Z,99543.34
2022-12-08T04:36:54.839Z,99545.91
2022-12-08T04:39:23.014Z,99552.97
2022-12-08T04:41:51.176Z,99558.53
2022-12-08T04:44:19.348Z,99551.84
2022-12-08T04:46:48.873Z,99535.41
2022-12-08T04:49:17.006Z,99543.94
2022-12-08T04:51:45.200Z,99544.59
2022-12-08T04:54:13.352Z,99539.84
2022-12-08T04:56:41.747Z,99532.25
2022-12-08T04:59:09.950Z,99541.72
2022-12-08T05:01:38.612Z,99556.31
2022-12-08T05:04:08.221Z,99548.22
2022-12-08T05:06:36.416Z,99554.38
2022-12-08T05:09:04.850Z,99557.88
2022-12-08T05:11:33.075Z,99567.06
2022-12-08T05:14:01.173Z,99558.81
2022-12-08T05:16:29.521Z,99565.97
2022-12-08T05:18:57.683Z,99557.75
2022-12-08T05:21:27.164Z,99565.66
2022-12-08T05:23:55.280Z,99571.81
2022-12-08T05:26:23.371Z,99573.25
2022-12-08T05:28:51.587Z,99582.09
2022-12-08T05:31:20.178Z,99581.78
2022-12-08T05:33:48.445Z,99578.94
2022-12-08T05:36:17.932Z,99582.75
2022-12-08T05:38:48.334Z,99580.03
2022-12-08T05:41:18.740Z,99586.06
2022-12-08T05:43:47.583Z,99586.34
2022-12-08T05:46:16.572Z,99594.63
2022-12-08T05:48:44.920Z,99600.78
2022-12-08T05:51:19.839Z,99599.97
2022-12-08T05:53:50.309Z,99601.09
2022-12-08T05:56:19.097Z,99604.44
2022-12-08T05:58:47.477Z,99605.69
2022-12-08T06:01:23.905Z,99612.03
2022-12-08T06:03:52.074Z,99603.94
2022-12-08T06:06:20.496Z,99608.81
2022-12-08T06:08:50.227Z,99609.78
2022-12-08T06:11:24.137Z,99607.38
2022-12-08T06:13:52.946Z,99614.22
2022-12-08T06:16:21.160Z,99612.16
2022-12-08T06:18:49.374Z,99607.72
2022-12-08T06:21:18.337Z,99615.66
2022-12-08T06:23:51.270Z,99605.47
2022-12-08T06:26:19.758Z,99610.25
2022-12-08T06:28:48.070Z,99617.50
2022-12-08T06:31:17.915Z,99608.63
2022-12-08T06:33:46.776Z,99615.09
2022-12-08T06:36:17.316Z,99611.09
2022-12-08T06:38:46.073Z,99614.75
2022-12-08T06:41:15.711Z,99618.41
2022-12-08T06:43:44.658Z,99622.19
2022-12-08T06:46:15.447Z,99626.25
2022-12-08T06:48:43.990Z,99622.63
2022-12-08T06:51:14.344Z,99624.72
2022-12-08T06:53:43.152Z,99621.56
2022-12-08T06:56:12.369Z,99619.09
2022-12-08T06:58:42.431Z,99627.81
2022-12-08T07:01:15.197Z,99635.09
2022-12-08T07:03:43.667Z,99634.75
2022-12-08T07:06:17.155Z,99628.19
2022-12-08T07:08:45.339Z,99641.97
2022-12-08T07:11:19.688Z,99642.94
2022-12-08T07:13:51.362Z,99644.66
2022-12-08T07:16:19.683Z,99640.50
2022-12-08T07:18:47.912Z,99634.81
2022-12-08T07:21:16.762Z,99643.38
2022-12-08T07:23:52.674Z,99658.41
2022-12-08T07:26:25.444Z,99656.66
2022-12-08T07:28:55.409Z,99661.50
2022-12-08T07:31:25.312Z,99671.97
2022-12-08T07:33:54.173Z,99669.72
2022-12-08T07:36:23.723Z,99669.09
2022-12-08T07:38:53.818Z,99671.38
2022-12-08T07:41:23.879Z,99678.59
2022-12-08T07:43:53.631Z,99680.34
2022-12-08T07:46:25.398Z,99678.28
2022-12-08T07:48:54.043Z,99685.72
2022-12-08T07:51:22.190Z,99685.41
2022-12-08T07:53:54.307Z,99690.81
2022-12-08T07:56:23.240Z,99689.41
2022-12-08T07:58:51.388Z,99691.72
2022-12-08T08:01:23.083Z,99685.06
2022-12-08T08:03:51.450Z,99684.91
2022-12-08T08:06:19.537Z,99694.81
2022-12-08T08:08:47.788Z,99689.75
2022-12-08T08:11:21.008Z,99699.56
2022-12-08T08:13:49.916Z,99695.94
2022-12-08T08:16:18.700Z,99687.25
2022-12-08T08:18:53.203Z,99691.97
2022-12-08T08:21:45.185Z,99696.28
2022-12-08T08:24:10.427Z,99696.91
2022-12-08T08:26:38.497Z,99699.78
2022-12-08T08:29:06.669Z,99702.28
2022-12-08T08:31:34.834Z,99697.16
2022-12-08T08:34:06.495Z,99697.63
2022-12-08T08:36:35.254Z,99691.16
2022-12-08T08:39:03.541Z,99691.97
2022-12-08T08:41:31.678Z,99696.47
2022-12-08T08:43:59.895Z,99689.81
2022-12-08T08:46:28.336Z,99681.25
2022-12-08T08:48:56.506Z,99683.94
2022-12-08T08:51:26.114Z,99680.13
2022-12-08T08:53:54.311Z,99676.44
2022-12-08T08:56:22.549Z,99673.72
2022-12-08T08:58:51.989Z,99670.03
2022-12-08T09:01:22.282Z,99678.63
2022-12-08T09:03:50.731Z,99666.16
2022-12-08T09:06:19.244Z,99664.34
2022-12-08T09:08:49.624Z,99666.75
2022-12-08T09:11:18.778Z,99652.72
2022-12-08T09:13:49.223Z,99658.66
2022-12-08T09:16:18.736Z,99660.56
2022-12-08T09:18:48.112Z,99663.69
2022-12-08T09:21:22.527Z,99656.56
2022-12-08T09:23:53.015Z,99652.06
2022-12-08T09:26:22.603Z,99652.53
2022-12-08T09:28:51.199Z,99650.59
2022-12-08T09:31:20.665Z,99657.31
2022-12-08T09:33:48.856Z,99643.97
2022-12-08T09:36:16.933Z,99640.31
2022-12-08T09:38:46.734Z,99638.94
2022-12-08T09:41:21.504Z,99634.16
2022-12-08T09:44:04.297Z,99639.47
2022-12-08T09:46:35.556Z,99633.41
2022-12-08T09:49:05.560Z,99632.88
2022-12-08T09:51:39.306Z,99629.06
2022-12-08T09:54:12.679Z,99634.44
2022-12-08T09:56:42.711Z,99627.94
2022-12-08T09:59:24.075Z,99629.78
2022-12-08T10:01:52.869Z,99625.69
2022-12-08T10:04:26.209Z,99614.56
2022-12-08T10:07:04.938Z,99621.81
2022-12-08T10:09:41.913Z,99618.72
2022-12-08T10:12:22.209Z,99615.22
2022-12-08T10:15:00.161Z,99617.09
2022-12-08T10:17:34.509Z,99606.06
2022-12-08T10:20:11.345Z,99597.06
2022-12-08T10:22:44.459Z,99589.47
2022-12-08T10:25:18.326Z,99592.56
2022-12-08T10:27:49.966Z,99591.72
2022-12-08T10:30:20.394Z,99598.63
2022-12-08T10:32:52.147Z,99611.50
2022-12-08T10:35:22.832Z,99605.66
2022-12-08T10:37:58.411Z,99597.84
2022-12-08T10:40:29.850Z,99597.31
2022-12-08T10:43:00.733Z,99592.03
2022-12-08T10:45:31.321Z,99594.06
2022-12-08T10:48:05.970Z,99583.59
2022-12-08T10:50:37.080Z,99575.50
2022-12-08T10:53:14.485Z,99575.50
2022-12-08T10:55:46.395Z,99572.97
2022-12-08T10:58:37.161Z,99570.50
2022-12-08T11:01:11.004Z,99578.06
2022-12-08T11:03:46.438Z,99584.94
2022-12-08T11:06:19.093Z,99581.78
2022-12-08T11:08:51.373Z,99571.75
2022-12-08T11:11:25.859Z,99572.13
2022-12-08T11:13:58.720Z,99570.25
2022-12-08T11:16:27.003Z,99568.78
2022-12-08T11:18:59.474Z,99556.84
2022-12-08T11:21:37.107Z,99552.06
2022-12-08T11:24:24.123Z,99557.31
2022-12-08T11:26:55.850Z,99552.25
2022-12-08T11:29:25.431Z,99557.66
2022-12-08T11:31:58.444Z,99549.88
2022-12-08T11:34:34.211Z,99541.53
2022-12-08T11:37:05.029Z,99541.19
2022-12-08T11:39:36.465Z,99532.31
2022-12-08T11:42:08.902Z,99536.34
2022-12-08T11:44:44.148Z,99539.72
2022-12-08T11:47:18.855Z,99532.41
2022-12-08T11:49:50.366Z,99543.59
2022-12-08T11:52:23.877Z,99547.31
2022-12-08T11:54:57.081Z,99526.25
2022-12-08T11:57:28.183Z,99526.69
2022-12-08T11:59:59.758Z,99530.28
2022-12-08T12:02:30.254Z,99531.44
2022-12-08T12:05:04.361Z,99518.13
2022-12-08T12:07:48.749Z,99523.53
2022-12-08T12:10:29.498Z,99523.19
2022-12-08T12:13:08.920Z,99527.69
2022-12-08T12:16:27.813Z,99523.09
2022-12-08T12:19:00.153Z,99534.56
2022-12-08T12:21:33.594Z,99537.06
2022-12-08T12:24:07.566Z,99538.50
2022-12-08T12:26:38.698Z,99539.66
2022-12-08T12:29:14.169Z,99541.41
2022-12-08T12:31:48.735Z,99548.06
2022-12-08T12:34:22.389Z,99554.00
2022-12-08T12:36:54.016Z,99551.28
2022-12-08T12:39:24.575Z,99550.25
2022-12-08T12:41:55.458Z,99549.16
2022-12-08T12:44:44.492Z,99541.94
2022-12-08T12:47:48.647Z,99545.22
2022-12-08T12:50:55.224Z,99532.94
2022-12-08T12:53:49.873Z,99532.72
2022-12-08T12:56:50.152Z,99527.66
2022-12-08T12:59:45.497Z,99526.88
2022-12-08T13:02:25.239Z,99539.91
2022-12-08T13:05:00.756Z,99544.53
2022-12-08T13:07:32.134Z,99537.88
2022-12-08T13:10:04.035Z,99540.16
2022-12-08T13:12:32.751Z,99535.28
2022-12-08T13:15:05.733Z,99534.88
2022-12-08T13:17:38.472Z,99522.72
2022-12-08T13:20:19.077Z,99536.09
2022-12-08T13:23:04.785Z,99518.50
2022-12-08T13:26:14.764Z,99521.78
2022-12-08T13:29:23.241Z,99521.00
2022-12-08T13:31:53.818Z,99522.34
2022-12-08T13:34:35.198Z,99519.84
2022-12-08T13:37:19.043Z,99516.13
2022-12-08T13:39:52.281Z,99513.09
2022-12-08T13:42:26.126Z,99527.75
2022-12-08T13:48:21.559Z,99525.47
2022-12-08T13:59:30.842Z,99537.63
2022-12-08T14:02:00.724Z,99543.81
2022-12-08T14:05:16.203Z,99540.78
2022-12-08T14:07:19.030Z,99525.56
2022-12-08T14:09:48.021Z,99523.53
2022-12-08T14:12:21.144Z,99521.63
2022-12-08T14:15:08.065Z,99522.09
2022-12-08T14:17:36.247Z,99530.38
2022-12-08T14:20:18.242Z,99526.03
2022-12-08T14:22:47.926Z,99514.25
2022-12-08T14:25:18.271Z,99511.06
2022-12-08T14:27:47.707Z,99513.66
2022-12-08T14:30:26.181Z,99513.09
2022-12-08T14:32:56.843Z,99515.41
2022-12-08T14:35:28.281Z,99522.06
2022-12-08T14:38:00.188Z,99525.00
2022-12-08T14:40:34.843Z,99530.56
2022-12-08T14:43:17.153Z,99535.03
2022-12-08T14:45:53.589Z,99533.34
2022-12-08T14:48:26.774Z,99532.78
2022-12-08T14:51:02.914Z,99527.88
2022-12-08T14:53:39.857Z,99538.59
2022-12-08T14:56:10.264Z,99536.38
2022-12-08T14:58:38.394Z,99540.69
2022-12-08T15:01:10.485Z,99531.19
2022-12-08T15:03:38.727Z,99526.34
2022-12-08T15:06:08.861Z,99531.34
2022-12-08T15:08:53.116Z,99530.50
2022-12-08T15:11:33.104Z,99535.59
2022-12-08T15:14:01.624Z,99543.06
2022-12-08T15:16:33.125Z,99543.09
2022-12-08T15:19:06.069Z,99551.47
2022-12-08T15:21:40.044Z,99550.06
2022-12-08T15:24:12.420Z,99551.66
2022-12-08T15:26:43.174Z,99533.88
2022-12-08T15:29:12.973Z,99538.69
2022-12-08T15:31:41.143Z,99545.75
2022-12-08T15:34:09.261Z,99539.50
2022-12-08T15:36:38.160Z,99541.38
2022-12-08T15:39:26.984Z,99551.78
2022-12-08T15:41:55.193Z,99555.19
2022-12-08T15:44:24.050Z,99552.91
2022-12-08T15:46:52.276Z,99545.69
2022-12-08T15:49:22.973Z,99549.94
2022-12-08T15:51:55.684Z,99554.16
2022-12-08T15:54:30.241Z,99551.03
2022-12-08T15:59:47.562Z,99549.28
2022-12-08T16:02:22.357Z,99553.31
2022-12-08T16:07:39.541Z,99541.25
2022-12-08T16:10:12.596Z,99554.03
2022-12-08T16:13:55.463Z,99556.31
2022-12-08T16:15:55.142Z,99542.03
2022-12-08T16:18:29.919Z,99545.34
2022-12-08T16:21:12.467Z,99537.84
2022-12-08T16:23:46.718Z,99542.38
2022-12-08T16:26:44.125Z,99536.53
2022-12-08T16:29:06.853Z,99540.47
2022-12-08T16:31:35.552Z,99541.22
2022-12-08T16:34:03.798Z,99533.63
2022-12-08T16:36:32.383Z,99542.06
2022-12-08T16:39:00.575Z,99550.59
2022-12-08T16:41:47.163Z,99549.75
2022-12-08T16:44:16.439Z,99556.66
2022-12-08T16:46:44.649Z,99558.56
2022-12-08T16:49:12.700Z,99558.06
2022-12-08T16:51:43.948Z,99553.63
2022-12-08T16:54:12.165Z,99567.44
2022-12-08T16:56:42.047Z,99566.16
2022-12-08T16:59:10.071Z,99555.47
2022-12-08T17:01:38.542Z,99559.03
2022-12-08T17:04:30.371Z,99570.53
2022-12-08T17:06:54.974Z,99570.88
2022-12-08T17:09:23.068Z,99572.44
2022-12-08T17:11:53.103Z,99567.84
2022-12-08T17:14:21.379Z,99567.38
2022-12-08T17:16:49.657Z,99562.50
2022-12-08T17:19:19.031Z,99563.06
2022-12-08T17:21:47.225Z,99554.16
2022-12-08T17:24:18.656Z,99557.84
2022-12-08T17:26:50.021Z,99566.53
2022-12-08T17:29:19.748Z,99583.63
2022-12-08T17:31:48.173Z,99583.63
2022-12-08T17:34:16.394Z,99577.91
2022-12-08T17:36:45.172Z,99575.72
2022-12-08T17:39:18.393Z,99569.69
2022-12-08T17:41:47.153Z,99574.56
2022-12-08T17:44:17.900Z,99574.25
2022-12-08T17:46:52.679Z,99567.78
2022-12-08T17:49:24.591Z,99575.28
2022-12-08T17:51:54.764Z,99575.53
2022-12-08T17:54:23.268Z,99571.81
2022-12-08T17:56:51.540Z,99577.19
2022-12-08T17:59:19.992Z,99573.50
2022-12-08T18:01:49.663Z,99576.78
2022-12-08T18:04:17.867Z,99576.66
2022-12-08T18:06:46.584Z,99575.69
2022-12-08T18:09:14.916Z,99584.09
2022-12-08T18:11:47.290Z,99582.84
2022-12-08T18:14:16.152Z,99581.78
2022-12-08T18:16:46.371Z,99579.25
2022-12-08T18:19:16.811Z,99577.19
2022-12-08T18:21:45.200Z,99580.19
2022-12-08T18:24:19.001Z,99577.19
2022-12-08T18:26:47.787Z,99579.53
2022-12-08T18:29:16.092Z,99572.91
2022-12-08T18:31:44.395Z,99574.34
2022-12-08T18:34:12.648Z,99570.84
2022-12-08T18:36:42.742Z,99577.50
2022-12-08T18:39:22.218Z,99582.97
2022-12-08T18:41:50.631Z,99585.72
2022-12-08T18:44:19.439Z,99585.72
2022-12-08T18:46:47.638Z,99581.56
2022-12-08T18:49:17.570Z,99579.19
2022-12-08T18:51:47.451Z,99578.88
2022-12-08T18:54:15.606Z,99573.13
2022-12-08T18:56:43.759Z,99557.44
2022-12-08T18:59:13.317Z,99561.63
2022-12-08T19:01:42.483Z,99568.13
2022-12-08T19:04:40.703Z,99567.28
2022-12-08T19:07:00.399Z,99573.84
2022-12-08T19:09:29.142Z,99568.59
2022-12-08T19:11:58.245Z,99569.53
2022-12-08T19:14:28.590Z,99566.28
2022-12-08T19:16:57.274Z,99571.63
2022-12-08T19:19:25.516Z,99563.59
2022-12-08T19:21:53.943Z,99569.28
2022-12-08T19:24:23.675Z,99568.78
2022-12-08T19:26:54.673Z,99566.31
2022-12-08T19:29:22.833Z,99565.94
2022-12-08T19:31:51.163Z,99558.56
2022-12-08T19:34:20.303Z,99560.06
2022-12-08T19:36:49.099Z,99557.38
2022-12-08T19:39:37.391Z,99554.22
2022-12-08T19:42:30.513Z,99560.44
2022-12-08T19:45:01.115Z,99555.41
2022-12-08T19:47:44.206Z,99566.41
2022-12-08T19:50:31.361Z,99574.16
2022-12-08T19:52:59.549Z,99568.16
2022-12-08T19:55:28.127Z,99578.34
2022-12-08T19:57:58.420Z,99570.31
2022-12-08T20:00:26.535Z,99572.31
2022-12-08T20:02:55.276Z,99574.03
2022-12-08T20:05:24.108Z,99567.97
2022-12-08T20:07:55.696Z,99570.06
2022-12-08T20:10:28.145Z,99563.63
2022-12-08T20:13:18.080Z,99573.44
2022-12-08T20:15:47.161Z,99582.63
2022-12-08T20:18:16.464Z,99583.75
2022-12-08T20:20:46.369Z,99568.34
2022-12-08T20:23:15.575Z,99563.75
2022-12-08T20:25:46.408Z,99564.88
2022-12-08T20:28:16.134Z,99569.13
2022-12-08T20:30:47.121Z,99567.38
2022-12-08T20:33:16.298Z,99571.38
2022-12-08T20:35:45.267Z,99576.69
2022-12-08T20:38:14.248Z,99572.97
2022-12-08T20:40:46.393Z,99577.88
2022-12-08T20:43:15.973Z,99575.34
2022-12-08T20:45:44.348Z,99582.97
2022-12-08T20:48:12.972Z,99588.41
2022-12-08T20:50:41.253Z,99585.66
2022-12-08T20:53:27.066Z,99586.38
2022-12-08T20:55:55.601Z,99589.41
2022-12-08T20:58:25.289Z,99593.38
2022-12-08T21:00:53.495Z,99594.47
2022-12-08T21:03:21.965Z,99593.56
2022-12-08T21:05:51.420Z,99596.25
2022-12-08T21:08:19.877Z,99607.16
2022-12-08T21:10:55.070Z,99602.44
2022-12-08T21:13:25.105Z,99602.75
2022-12-08T21:15:53.516Z,99603.88
2022-12-08T21:18:21.784Z,99608.13
2022-12-08T21:20:49.938Z,99596.44
2022-12-08T21:23:19.228Z,99594.72
2022-12-08T21:25:48.273Z,99596.94
2022-12-08T21:28:16.616Z,99606.66
2022-12-08T21:30:46.266Z,99613.03
2022-12-08T21:33:14.416Z,99609.25
2022-12-08T21:35:43.224Z,99609.88
2022-12-08T21:38:11.492Z,99622.88
2022-12-08T21:40:39.728Z,99629.88
2022-12-08T21:43:08.099Z,99612.25
2022-12-08T21:45:36.482Z,99616.19
2022-12-08T21:48:11.384Z,99609.09
2022-12-08T21:50:40.827Z,99610.19
2022-12-08T21:53:09.067Z,99607.47
2022-12-08T21:55:37.248Z,99619.25
2022-12-08T21:58:05.671Z,99609.41
2022-12-08T22:00:33.910Z,99620.06
2022-12-08T22:03:02.291Z,99609.78
2022-12-08T22:05:32.158Z,99608.09
2022-12-08T22:08:00.657Z,99613.16
2022-12-08T22:10:28.973Z,99616.47
2022-12-08T22:12:57.164Z,99616.09
2022-12-08T22:15:26.162Z,99614.84
2022-12-08T22:17:54.410Z,99607.09
2022-12-08T22:20:22.692Z,99608.09
2022-12-08T22:22:52.327Z,99608.09
2022-12-08T22:25:20.690Z,99615.25
2022-12-08T22:27:48.989Z,99612.75
2022-12-08T22:30:17.477Z,99611.13
2022-12-08T22:32:45.585Z,99620.97
2022-12-08T22:35:13.749Z,99616.09
2022-12-08T22:37:42.010Z,99611.63
2022-12-08T22:40:12.849Z,99607.69
2022-12-08T22:42:41.219Z,99606.44
2022-12-08T22:45:10.603Z,99600.75
2022-12-08T22:47:38.884Z,99600.47
2022-12-08T22:50:08.459Z,99619.31
2022-12-08T22:52:36.949Z,99600.56
2022-12-08T22:55:05.627Z,99591.22
2022-12-08T22:57:35.414Z,99591.69
2022-12-08T23:00:03.631Z,99590.06
2022-12-08T23:02:31.947Z,99586.59
2022-12-08T23:05:00.383Z,99583.38
2022-12-08T23:07:28.631Z,99593.13
2022-12-08T23:09:56.934Z,99597.03
2022-12-08T23:12:25.064Z,99592.91
2022-12-08T23:14:55.038Z,99585.41
2022-12-08T23:17:23.364Z,99578.75
2022-12-08T23:19:51.567Z,99578.34
2022-12-08T23:22:19.877Z,99575.38
2022-12-08T23:24:48.110Z,99576.84
2022-12-08T23:27:16.258Z,99573.84
2022-12-08T23:29:44.384Z,99574.63
2022-12-08T23:32:13.865Z,99582.06
2022-12-08T23:34:42.246Z,99590.31
2022-12-08T23:37:10.813Z,99591.09
2022-12-08T23:39:39.464Z,99587.56
2022-12-08T23:42:08.134Z,99591.47
2022-12-08T23:44:36.248Z,99590.38
2022-12-08T23:47:04.556Z,99593.88
2022-12-08T23:49:34.645Z,99597.94
2022-12-08T23:52:02.868Z,99602.06
2022-12-08T23:54:31.010Z,99594.81
2022-12-08T23:56:59.259Z,99603.41
2022-12-08T23:59:27.400Z,99607.03
